sensor_id;sensor_type;location;lat;lon;timestamp;pressure;altitude;pressure_sealevel;temperature
76901;BMP280;65859;43.020;25.096;2023-08-30T00:01:12;98291.91;;;25.85
76901;BMP280;65859;43.020;25.096;2023-08-30T00:03:38;98298.97;;;25.10
76901;BMP280;65859;43.020;25.096;2023-08-30T00:06:05;98303.41;;;24.85
76901;BMP280;65859;43.020;25.096;2023-08-30T00:08:32;98303.13;;;24.83
76901;BMP280;65859;43.020;25.096;2023-08-30T00:10:59;98301.13;;;24.75
76901;BMP280;65859;43.020;25.096;2023-08-30T00:13:26;98303.75;;;24.87
76901;BMP280;65859;43.020;25.096;2023-08-30T00:15:52;98307.19;;;24.79
76901;BMP280;65859;43.020;25.096;2023-08-30T00:18:21;98305.97;;;24.80
76901;BMP280;65859;43.020;25.096;2023-08-30T00:20:48;98308.47;;;25.05
76901;BMP280;65859;43.020;25.096;2023-08-30T00:23:14;98303.38;;;25.44
76901;BMP280;65859;43.020;25.096;2023-08-30T00:25:42;98303.41;;;25.35
76901;BMP280;65859;43.020;25.096;2023-08-30T00:28:08;98301.75;;;25.55
76901;BMP280;65859;43.020;25.096;2023-08-30T00:30:35;98300.66;;;25.26
76901;BMP280;65859;43.020;25.096;2023-08-30T00:33:01;98301.53;;;25.04
76901;BMP280;65859;43.020;25.096;2023-08-30T00:35:27;98302.38;;;24.83
76901;BMP280;65859;43.020;25.096;2023-08-30T00:37:53;98299.19;;;25.52
76901;BMP280;65859;43.020;25.096;2023-08-30T00:40:23;98309.88;;;25.65
76901;BMP280;65859;43.020;25.096;2023-08-30T00:42:50;98308.41;;;25.64
76901;BMP280;65859;43.020;25.096;2023-08-30T00:45:17;98310.19;;;25.76
76901;BMP280;65859;43.020;25.096;2023-08-30T00:47:43;98310.66;;;25.47
76901;BMP280;65859;43.020;25.096;2023-08-30T00:50:12;98310.47;;;24.74
76901;BMP280;65859;43.020;25.096;2023-08-30T00:52:38;98308.75;;;25.07
76901;BMP280;65859;43.020;25.096;2023-08-30T00:55:05;98312.44;;;25.22
76901;BMP280;65859;43.020;25.096;2023-08-30T00:57:32;98315.50;;;25.52
76901;BMP280;65859;43.020;25.096;2023-08-30T00:59:58;98309.94;;;25.74
76901;BMP280;65859;43.020;25.096;2023-08-30T01:02:24;98310.06;;;25.43
76901;BMP280;65859;43.020;25.096;2023-08-30T01:04:51;98312.34;;;24.46
76901;BMP280;65859;43.020;25.096;2023-08-30T01:07:18;98308.47;;;24.65
76901;BMP280;65859;43.020;25.096;2023-08-30T01:09:45;98304.28;;;25.32
76901;BMP280;65859;43.020;25.096;2023-08-30T01:12:22;98303.09;;;25.51
76901;BMP280;65859;43.020;25.096;2023-08-30T01:15:00;98312.91;;;25.39
76901;BMP280;65859;43.020;25.096;2023-08-30T01:17:29;98305.34;;;25.62
76901;BMP280;65859;43.020;25.096;2023-08-30T01:20:03;98299.50;;;25.63
76901;BMP280;65859;43.020;25.096;2023-08-30T01:28:10;98313.66;;;25.31
76901;BMP280;65859;43.020;25.096;2023-08-30T01:30:40;98310.66;;;25.38
76901;BMP280;65859;43.020;25.096;2023-08-30T01:33:08;98311.81;;;25.09
76901;BMP280;65859;43.020;25.096;2023-08-30T01:35:35;98311.47;;;24.58
76901;BMP280;65859;43.020;25.096;2023-08-30T01:38:06;98308.56;;;24.83
76901;BMP280;65859;43.020;25.096;2023-08-30T01:40:36;98308.03;;;24.67
76901;BMP280;65859;43.020;25.096;2023-08-30T01:43:05;98312.66;;;24.57
76901;BMP280;65859;43.020;25.096;2023-08-30T01:45:43;98308.38;;;24.78
76901;BMP280;65859;43.020;25.096;2023-08-30T01:48:13;98317.94;;;24.61
76901;BMP280;65859;43.020;25.096;2023-08-30T01:50:42;98314.81;;;25.02
76901;BMP280;65859;43.020;25.096;2023-08-30T01:53:14;98318.72;;;25.01
76901;BMP280;65859;43.020;25.096;2023-08-30T01:55:42;98309.06;;;25.00
76901;BMP280;65859;43.020;25.096;2023-08-30T01:58:08;98315.47;;;24.75
76901;BMP280;65859;43.020;25.096;2023-08-30T02:00:36;98316.69;;;24.83
76901;BMP280;65859;43.020;25.096;2023-08-30T02:03:10;98314.00;;;24.83
76901;BMP280;65859;43.020;25.096;2023-08-30T02:05:39;98321.72;;;24.63
76901;BMP280;65859;43.020;25.096;2023-08-30T02:08:14;98317.88;;;24.73
76901;BMP280;65859;43.020;25.096;2023-08-30T02:10:50;98316.09;;;24.27
76901;BMP280;65859;43.020;25.096;2023-08-30T02:13:20;98312.34;;;24.46
76901;BMP280;65859;43.020;25.096;2023-08-30T02:15:48;98310.56;;;24.30
76901;BMP280;65859;43.020;25.096;2023-08-30T02:18:15;98315.84;;;24.12
76901;BMP280;65859;43.020;25.096;2023-08-30T02:20:41;98324.16;;;23.26
76901;BMP280;65859;43.020;25.096;2023-08-30T02:23:10;98319.81;;;22.78
76901;BMP280;65859;43.020;25.096;2023-08-30T02:25:38;98309.63;;;22.44
76901;BMP280;65859;43.020;25.096;2023-08-30T02:28:04;98304.06;;;22.77
76901;BMP280;65859;43.020;25.096;2023-08-30T02:30:30;98302.19;;;22.61
76901;BMP280;65859;43.020;25.096;2023-08-30T02:32:57;98306.09;;;22.73
76901;BMP280;65859;43.020;25.096;2023-08-30T02:35:23;98302.38;;;22.54
76901;BMP280;65859;43.020;25.096;2023-08-30T02:37:50;98306.31;;;22.24
76901;BMP280;65859;43.020;25.096;2023-08-30T02:40:16;98296.53;;;22.14
76901;BMP280;65859;43.020;25.096;2023-08-30T02:42:42;98288.03;;;22.15
76901;BMP280;65859;43.020;25.096;2023-08-30T02:45:09;98290.09;;;22.24
76901;BMP280;65859;43.020;25.096;2023-08-30T02:47:35;98295.13;;;22.09
76901;BMP280;65859;43.020;25.096;2023-08-30T02:50:01;98296.41;;;22.05
76901;BMP280;65859;43.020;25.096;2023-08-30T02:52:28;98291.59;;;22.25
76901;BMP280;65859;43.020;25.096;2023-08-30T02:54:54;98292.72;;;21.98
76901;BMP280;65859;43.020;25.096;2023-08-30T02:57:23;98290.31;;;21.88
76901;BMP280;65859;43.020;25.096;2023-08-30T02:59:49;98292.56;;;21.89
76901;BMP280;65859;43.020;25.096;2023-08-30T03:02:15;98289.44;;;21.91
76901;BMP280;65859;43.020;25.096;2023-08-30T03:04:41;98295.28;;;21.73
76901;BMP280;65859;43.020;25.096;2023-08-30T03:07:07;98292.34;;;21.84
76901;BMP280;65859;43.020;25.096;2023-08-30T03:09:34;98292.66;;;21.86
76901;BMP280;65859;43.020;25.096;2023-08-30T03:12:00;98275.53;;;21.76
76901;BMP280;65859;43.020;25.096;2023-08-30T03:14:26;98287.22;;;21.57
76901;BMP280;65859;43.020;25.096;2023-08-30T03:16:52;98285.53;;;21.63
76901;BMP280;65859;43.020;25.096;2023-08-30T03:19:18;98285.88;;;21.49
76901;BMP280;65859;43.020;25.096;2023-08-30T03:21:45;98291.72;;;21.31
76901;BMP280;65859;43.020;25.096;2023-08-30T03:24:11;98288.56;;;21.16
76901;BMP280;65859;43.020;25.096;2023-08-30T03:26:37;98292.47;;;21.31
76901;BMP280;65859;43.020;25.096;2023-08-30T03:29:05;98293.75;;;21.27
76901;BMP280;65859;43.020;25.096;2023-08-30T03:31:31;98297.63;;;21.42
76901;BMP280;65859;43.020;25.096;2023-08-30T03:33:57;98295.31;;;21.24
76901;BMP280;65859;43.020;25.096;2023-08-30T03:36:24;98295.75;;;21.07
76901;BMP280;65859;43.020;25.096;2023-08-30T03:38:50;98296.03;;;20.92
76901;BMP280;65859;43.020;25.096;2023-08-30T03:41:17;98303.69;;;20.78
76901;BMP280;65859;43.020;25.096;2023-08-30T03:43:44;98301.13;;;20.90
76901;BMP280;65859;43.020;25.096;2023-08-30T03:46:10;98302.00;;;20.84
76901;BMP280;65859;43.020;25.096;2023-08-30T03:48:37;98306.38;;;20.78
76901;BMP280;65859;43.020;25.096;2023-08-30T03:51:04;98309.19;;;21.43
76901;BMP280;65859;43.020;25.096;2023-08-30T03:53:30;98308.31;;;20.77
76901;BMP280;65859;43.020;25.096;2023-08-30T03:55:56;98309.91;;;21.76
76901;BMP280;65859;43.020;25.096;2023-08-30T03:58:23;98317.75;;;21.05
76901;BMP280;65859;43.020;25.096;2023-08-30T04:00:51;98322.84;;;21.19
76901;BMP280;65859;43.020;25.096;2023-08-30T04:03:17;98326.47;;;20.93
76901;BMP280;65859;43.020;25.096;2023-08-30T04:05:43;98325.06;;;20.68
76901;BMP280;65859;43.020;25.096;2023-08-30T04:08:10;98320.72;;;20.91
76901;BMP280;65859;43.020;25.096;2023-08-30T04:10:40;98322.91;;;21.64
76901;BMP280;65859;43.020;25.096;2023-08-30T04:13:07;98325.00;;;21.24
76901;BMP280;65859;43.020;25.096;2023-08-30T04:15:37;98330.84;;;21.39
76901;BMP280;65859;43.020;25.096;2023-08-30T04:18:05;98329.88;;;21.13
76901;BMP280;65859;43.020;25.096;2023-08-30T04:20:32;98335.16;;;21.00
76901;BMP280;65859;43.020;25.096;2023-08-30T04:22:59;98335.63;;;21.15
76901;BMP280;65859;43.020;25.096;2023-08-30T04:25:30;98343.34;;;20.97
76901;BMP280;65859;43.020;25.096;2023-08-30T04:27:56;98338.00;;;20.93
76901;BMP280;65859;43.020;25.096;2023-08-30T04:30:23;98345.03;;;21.27
76901;BMP280;65859;43.020;25.096;2023-08-30T04:32:50;98347.47;;;21.38
76901;BMP280;65859;43.020;25.096;2023-08-30T04:35:17;98349.66;;;21.59
76901;BMP280;65859;43.020;25.096;2023-08-30T04:37:44;98356.41;;;21.34
76901;BMP280;65859;43.020;25.096;2023-08-30T04:40:10;98361.84;;;21.15
76901;BMP280;65859;43.020;25.096;2023-08-30T04:42:37;98362.44;;;21.06
76901;BMP280;65859;43.020;25.096;2023-08-30T04:45:06;98361.22;;;21.43
76901;BMP280;65859;43.020;25.096;2023-08-30T04:47:32;98356.75;;;21.69
76901;BMP280;65859;43.020;25.096;2023-08-30T04:49:59;98356.31;;;21.87
76901;BMP280;65859;43.020;25.096;2023-08-30T04:52:25;98362.50;;;22.45
76901;BMP280;65859;43.020;25.096;2023-08-30T04:54:52;98363.38;;;22.42
76901;BMP280;65859;43.020;25.096;2023-08-30T04:57:18;98345.56;;;22.28
76901;BMP280;65859;43.020;25.096;2023-08-30T04:59:45;98356.84;;;22.11
76901;BMP280;65859;43.020;25.096;2023-08-30T05:02:12;98355.09;;;22.04
76901;BMP280;65859;43.020;25.096;2023-08-30T05:04:40;98348.78;;;21.94
76901;BMP280;65859;43.020;25.096;2023-08-30T05:07:06;98343.78;;;22.38
76901;BMP280;65859;43.020;25.096;2023-08-30T05:09:33;98348.78;;;22.52
76901;BMP280;65859;43.020;25.096;2023-08-30T05:12:01;98348.19;;;22.74
76901;BMP280;65859;43.020;25.096;2023-08-30T05:14:27;98347.78;;;22.88
76901;BMP280;65859;43.020;25.096;2023-08-30T05:16:53;98344.13;;;22.53
76901;BMP280;65859;43.020;25.096;2023-08-30T05:19:20;98352.75;;;22.89
76901;BMP280;65859;43.020;25.096;2023-08-30T05:21:46;98358.16;;;23.02
76901;BMP280;65859;43.020;25.096;2023-08-30T05:24:13;98357.44;;;23.14
76901;BMP280;65859;43.020;25.096;2023-08-30T05:26:39;98366.00;;;23.73
76901;BMP280;65859;43.020;25.096;2023-08-30T05:29:05;98367.88;;;23.38
76901;BMP280;65859;43.020;25.096;2023-08-30T05:31:31;98365.06;;;22.90
76901;BMP280;65859;43.020;25.096;2023-08-30T05:33:58;98363.03;;;23.20
76901;BMP280;65859;43.020;25.096;2023-08-30T05:36:27;98359.03;;;23.84
76901;BMP280;65859;43.020;25.096;2023-08-30T05:38:53;98366.25;;;23.53
76901;BMP280;65859;43.020;25.096;2023-08-30T05:41:20;98360.28;;;23.71
76901;BMP280;65859;43.020;25.096;2023-08-30T05:43:46;98355.28;;;23.69
76901;BMP280;65859;43.020;25.096;2023-08-30T05:46:12;98358.13;;;23.53
76901;BMP280;65859;43.020;25.096;2023-08-30T05:48:41;98356.34;;;22.99
76901;BMP280;65859;43.020;25.096;2023-08-30T05:51:07;98359.13;;;23.46
76901;BMP280;65859;43.020;25.096;2023-08-30T05:53:36;98354.13;;;23.57
76901;BMP280;65859;43.020;25.096;2023-08-30T05:56:04;98357.81;;;23.85
76901;BMP280;65859;43.020;25.096;2023-08-30T05:58:30;98357.44;;;23.74
76901;BMP280;65859;43.020;25.096;2023-08-30T06:00:59;98356.94;;;25.25
76901;BMP280;65859;43.020;25.096;2023-08-30T06:03:26;98364.38;;;25.43
76901;BMP280;65859;43.020;25.096;2023-08-30T06:05:53;98363.63;;;25.42
76901;BMP280;65859;43.020;25.096;2023-08-30T06:08:21;98355.06;;;25.53
76901;BMP280;65859;43.020;25.096;2023-08-30T06:10:47;98350.81;;;25.52
76901;BMP280;65859;43.020;25.096;2023-08-30T06:13:14;98342.09;;;24.99
76901;BMP280;65859;43.020;25.096;2023-08-30T06:15:40;98353.34;;;24.57
76901;BMP280;65859;43.020;25.096;2023-08-30T06:18:07;98353.88;;;25.05
76901;BMP280;65859;43.020;25.096;2023-08-30T06:20:33;98366.50;;;25.48
76901;BMP280;65859;43.020;25.096;2023-08-30T06:23:03;98365.72;;;26.39
76901;BMP280;65859;43.020;25.096;2023-08-30T06:25:29;98352.53;;;26.88
76901;BMP280;65859;43.020;25.096;2023-08-30T06:27:58;98347.91;;;26.71
76901;BMP280;65859;43.020;25.096;2023-08-30T06:30:28;98348.06;;;26.76
76901;BMP280;65859;43.020;25.096;2023-08-30T06:32:55;98345.00;;;27.31
76901;BMP280;65859;43.020;25.096;2023-08-30T06:35:22;98337.66;;;26.99
76901;BMP280;65859;43.020;25.096;2023-08-30T06:37:49;98339.19;;;26.57
76901;BMP280;65859;43.020;25.096;2023-08-30T06:40:17;98339.38;;;26.54
76901;BMP280;65859;43.020;25.096;2023-08-30T06:42:43;98343.72;;;26.70
76901;BMP280;65859;43.020;25.096;2023-08-30T06:45:10;98339.53;;;27.55
76901;BMP280;65859;43.020;25.096;2023-08-30T06:47:37;98343.97;;;27.67
76901;BMP280;65859;43.020;25.096;2023-08-30T06:50:03;98353.34;;;28.05
76901;BMP280;65859;43.020;25.096;2023-08-30T06:52:29;98359.97;;;28.62
76901;BMP280;65859;43.020;25.096;2023-08-30T06:54:56;98367.91;;;28.60
76901;BMP280;65859;43.020;25.096;2023-08-30T06:57:22;98356.50;;;27.11
76901;BMP280;65859;43.020;25.096;2023-08-30T06:59:48;98363.13;;;28.26
76901;BMP280;65859;43.020;25.096;2023-08-30T07:02:15;98351.03;;;27.59
76901;BMP280;65859;43.020;25.096;2023-08-30T07:04:41;98345.22;;;27.28
76901;BMP280;65859;43.020;25.096;2023-08-30T07:07:07;98362.72;;;27.74
76901;BMP280;65859;43.020;25.096;2023-08-30T07:09:33;98358.72;;;27.46
76901;BMP280;65859;43.020;25.096;2023-08-30T07:12:01;98354.66;;;28.09
76901;BMP280;65859;43.020;25.096;2023-08-30T07:14:27;98345.72;;;28.09
76901;BMP280;65859;43.020;25.096;2023-08-30T07:16:54;98348.44;;;28.38
76901;BMP280;65859;43.020;25.096;2023-08-30T07:19:20;98345.13;;;28.34
76901;BMP280;65859;43.020;25.096;2023-08-30T07:21:46;98356.34;;;28.07
76901;BMP280;65859;43.020;25.096;2023-08-30T07:24:13;98359.13;;;28.91
76901;BMP280;65859;43.020;25.096;2023-08-30T07:26:39;98361.59;;;28.89
76901;BMP280;65859;43.020;25.096;2023-08-30T07:29:05;98355.69;;;29.11
76901;BMP280;65859;43.020;25.096;2023-08-30T07:31:32;98355.19;;;29.33
76901;BMP280;65859;43.020;25.096;2023-08-30T07:33:59;98358.38;;;29.52
76901;BMP280;65859;43.020;25.096;2023-08-30T07:36:26;98354.16;;;29.30
76901;BMP280;65859;43.020;25.096;2023-08-30T07:38:54;98368.25;;;29.23
76901;BMP280;65859;43.020;25.096;2023-08-30T07:41:20;98357.56;;;29.46
76901;BMP280;65859;43.020;25.096;2023-08-30T07:43:48;98367.34;;;29.52
76901;BMP280;65859;43.020;25.096;2023-08-30T07:46:14;98373.38;;;29.82
76901;BMP280;65859;43.020;25.096;2023-08-30T07:48:40;98374.09;;;29.57
76901;BMP280;65859;43.020;25.096;2023-08-30T07:51:06;98367.34;;;29.78
76901;BMP280;65859;43.020;25.096;2023-08-30T07:53:33;98359.78;;;29.42
76901;BMP280;65859;43.020;25.096;2023-08-30T07:55:59;98359.63;;;29.30
76901;BMP280;65859;43.020;25.096;2023-08-30T07:58:25;98365.00;;;30.54
76901;BMP280;65859;43.020;25.096;2023-08-30T08:00:53;98365.47;;;30.95
76901;BMP280;65859;43.020;25.096;2023-08-30T08:03:20;98369.06;;;31.24
76901;BMP280;65859;43.020;25.096;2023-08-30T08:05:46;98370.31;;;31.23
76901;BMP280;65859;43.020;25.096;2023-08-30T08:08:13;98361.03;;;31.09
76901;BMP280;65859;43.020;25.096;2023-08-30T08:10:41;98358.66;;;31.50
76901;BMP280;65859;43.020;25.096;2023-08-30T08:13:08;98350.94;;;31.54
76901;BMP280;65859;43.020;25.096;2023-08-30T08:15:36;98346.75;;;32.03
76901;BMP280;65859;43.020;25.096;2023-08-30T08:18:02;98347.97;;;32.24
76901;BMP280;65859;43.020;25.096;2023-08-30T08:20:29;98338.75;;;31.88
76901;BMP280;65859;43.020;25.096;2023-08-30T08:22:56;98342.47;;;31.91
76901;BMP280;65859;43.020;25.096;2023-08-30T08:25:23;98341.50;;;31.88
76901;BMP280;65859;43.020;25.096;2023-08-30T08:27:50;98365.19;;;35.16
76901;BMP280;65859;43.020;25.096;2023-08-30T08:30:19;98363.72;;;35.92
76901;BMP280;65859;43.020;25.096;2023-08-30T08:32:47;98361.56;;;37.11
76901;BMP280;65859;43.020;25.096;2023-08-30T08:35:16;98363.28;;;35.75
76901;BMP280;65859;43.020;25.096;2023-08-30T08:37:42;98366.13;;;34.44
76901;BMP280;65859;43.020;25.096;2023-08-30T08:40:12;98354.72;;;34.29
76901;BMP280;65859;43.020;25.096;2023-08-30T08:42:38;98355.34;;;36.11
76901;BMP280;65859;43.020;25.096;2023-08-30T08:45:06;98351.41;;;34.98
76901;BMP280;65859;43.020;25.096;2023-08-30T08:47:34;98363.41;;;34.63
76901;BMP280;65859;43.020;25.096;2023-08-30T08:50:02;98364.59;;;35.87
76901;BMP280;65859;43.020;25.096;2023-08-30T08:52:31;98368.63;;;35.04
76901;BMP280;65859;43.020;25.096;2023-08-30T08:54:58;98351.00;;;36.02
76901;BMP280;65859;43.020;25.096;2023-08-30T08:57:28;98360.34;;;37.20
76901;BMP280;65859;43.020;25.096;2023-08-30T08:59:56;98354.59;;;36.97
76901;BMP280;65859;43.020;25.096;2023-08-30T09:02:22;98348.56;;;36.12
76901;BMP280;65859;43.020;25.096;2023-08-30T09:04:50;98346.09;;;35.95
76901;BMP280;65859;43.020;25.096;2023-08-30T09:07:16;98347.75;;;37.60
76901;BMP280;65859;43.020;25.096;2023-08-30T09:09:43;98348.75;;;37.21
76901;BMP280;65859;43.020;25.096;2023-08-30T09:12:09;98350.41;;;37.94
76901;BMP280;65859;43.020;25.096;2023-08-30T09:14:35;98332.41;;;37.80
76901;BMP280;65859;43.020;25.096;2023-08-30T09:17:03;98329.22;;;36.72
76901;BMP280;65859;43.020;25.096;2023-08-30T09:19:31;98325.22;;;38.13
76901;BMP280;65859;43.020;25.096;2023-08-30T09:22:00;98328.66;;;37.98
76901;BMP280;65859;43.020;25.096;2023-08-30T09:24:40;98322.38;;;37.98
76901;BMP280;65859;43.020;25.096;2023-08-30T09:27:07;98319.06;;;37.50
76901;BMP280;65859;43.020;25.096;2023-08-30T09:29:33;98321.88;;;37.09
76901;BMP280;65859;43.020;25.096;2023-08-30T09:32:01;98317.38;;;35.59
76901;BMP280;65859;43.020;25.096;2023-08-30T09:34:28;98309.84;;;35.99
76901;BMP280;65859;43.020;25.096;2023-08-30T09:36:55;98314.91;;;36.95
76901;BMP280;65859;43.020;25.096;2023-08-30T09:39:21;98322.06;;;37.32
76901;BMP280;65859;43.020;25.096;2023-08-30T09:41:49;98322.44;;;38.57
76901;BMP280;65859;43.020;25.096;2023-08-30T09:44:17;98314.84;;;38.65
76901;BMP280;65859;43.020;25.096;2023-08-30T09:46:51;98318.59;;;37.88
76901;BMP280;65859;43.020;25.096;2023-08-30T09:49:23;98312.13;;;38.29
76901;BMP280;65859;43.020;25.096;2023-08-30T09:51:52;98302.22;;;37.41
76901;BMP280;65859;43.020;25.096;2023-08-30T09:54:23;98290.75;;;36.61
76901;BMP280;65859;43.020;25.096;2023-08-30T09:56:50;98295.38;;;36.79
76901;BMP280;65859;43.020;25.096;2023-08-30T09:59:22;98285.69;;;36.39
76901;BMP280;65859;43.020;25.096;2023-08-30T10:01:50;98272.72;;;36.34
76901;BMP280;65859;43.020;25.096;2023-08-30T10:04:20;98278.81;;;35.80
76901;BMP280;65859;43.020;25.096;2023-08-30T10:06:47;98277.47;;;34.59
76901;BMP280;65859;43.020;25.096;2023-08-30T10:09:15;98280.00;;;33.65
76901;BMP280;65859;43.020;25.096;2023-08-30T10:11:44;98276.06;;;33.55
76901;BMP280;65859;43.020;25.096;2023-08-30T10:14:14;98278.78;;;33.60
76901;BMP280;65859;43.020;25.096;2023-08-30T10:16:44;98275.38;;;33.79
76901;BMP280;65859;43.020;25.096;2023-08-30T10:19:25;98271.88;;;33.78
76901;BMP280;65859;43.020;25.096;2023-08-30T10:22:04;98266.50;;;32.96
76901;BMP280;65859;43.020;25.096;2023-08-30T10:24:40;98257.31;;;32.30
76901;BMP280;65859;43.020;25.096;2023-08-30T10:27:08;98266.53;;;32.33
76901;BMP280;65859;43.020;25.096;2023-08-30T10:29:37;98257.31;;;33.23
76901;BMP280;65859;43.020;25.096;2023-08-30T10:32:05;98248.63;;;32.73
76901;BMP280;65859;43.020;25.096;2023-08-30T10:34:33;98252.09;;;33.20
76901;BMP280;65859;43.020;25.096;2023-08-30T10:37:12;98244.47;;;32.55
76901;BMP280;65859;43.020;25.096;2023-08-30T10:39:39;98240.28;;;32.43
76901;BMP280;65859;43.020;25.096;2023-08-30T10:42:14;98230.34;;;32.29
76901;BMP280;65859;43.020;25.096;2023-08-30T10:44:56;98214.41;;;33.88
76901;BMP280;65859;43.020;25.096;2023-08-30T10:47:27;98212.31;;;33.21
76901;BMP280;65859;43.020;25.096;2023-08-30T10:50:00;98206.94;;;33.04
76901;BMP280;65859;43.020;25.096;2023-08-30T10:52:28;98213.03;;;32.45
76901;BMP280;65859;43.020;25.096;2023-08-30T10:55:06;98207.28;;;33.25
76901;BMP280;65859;43.020;25.096;2023-08-30T10:57:35;98211.44;;;33.07
76901;BMP280;65859;43.020;25.096;2023-08-30T11:02:36;98199.69;;;32.60
76901;BMP280;65859;43.020;25.096;2023-08-30T11:05:08;98198.75;;;31.22
76901;BMP280;65859;43.020;25.096;2023-08-30T11:07:34;98205.19;;;30.74
76901;BMP280;65859;43.020;25.096;2023-08-30T11:10:01;98205.75;;;31.62
76901;BMP280;65859;43.020;25.096;2023-08-30T11:12:33;98203.28;;;31.64
76901;BMP280;65859;43.020;25.096;2023-08-30T11:14:59;98204.97;;;31.95
76901;BMP280;65859;43.020;25.096;2023-08-30T11:17:26;98192.53;;;30.99
76901;BMP280;65859;43.020;25.096;2023-08-30T11:20:06;98180.19;;;30.55
76901;BMP280;65859;43.020;25.096;2023-08-30T11:22:43;98167.00;;;30.48
76901;BMP280;65859;43.020;25.096;2023-08-30T11:25:11;98183.28;;;30.80
76901;BMP280;65859;43.020;25.096;2023-08-30T11:27:38;98171.97;;;30.50
76901;BMP280;65859;43.020;25.096;2023-08-30T11:30:06;98169.63;;;31.35
76901;BMP280;65859;43.020;25.096;2023-08-30T11:32:39;98167.59;;;31.64
76901;BMP280;65859;43.020;25.096;2023-08-30T11:35:06;98164.41;;;31.26
76901;BMP280;65859;43.020;25.096;2023-08-30T11:37:33;98158.06;;;30.53
76901;BMP280;65859;43.020;25.096;2023-08-30T11:40:00;98152.84;;;30.77
76901;BMP280;65859;43.020;25.096;2023-08-30T11:42:27;98150.13;;;30.89
76901;BMP280;65859;43.020;25.096;2023-08-30T11:44:54;98151.38;;;30.65
76901;BMP280;65859;43.020;25.096;2023-08-30T11:47:26;98152.66;;;31.09
76901;BMP280;65859;43.020;25.096;2023-08-30T11:49:55;98153.44;;;31.26
76901;BMP280;65859;43.020;25.096;2023-08-30T11:52:25;98154.38;;;31.73
76901;BMP280;65859;43.020;25.096;2023-08-30T11:54:53;98153.94;;;32.27
76901;BMP280;65859;43.020;25.096;2023-08-30T11:57:20;98148.31;;;32.90
76901;BMP280;65859;43.020;25.096;2023-08-30T11:59:47;98150.84;;;31.78
76901;BMP280;65859;43.020;25.096;2023-08-30T12:02:14;98148.41;;;31.13
76901;BMP280;65859;43.020;25.096;2023-08-30T12:04:46;98155.72;;;32.19
76901;BMP280;65859;43.020;25.096;2023-08-30T12:07:25;98144.88;;;32.38
76901;BMP280;65859;43.020;25.096;2023-08-30T12:09:52;98143.38;;;31.79
76901;BMP280;65859;43.020;25.096;2023-08-30T12:12:29;98144.97;;;31.41
76901;BMP280;65859;43.020;25.096;2023-08-30T12:14:56;98141.44;;;31.57
76901;BMP280;65859;43.020;25.096;2023-08-30T12:17:23;98137.47;;;31.30
76901;BMP280;65859;43.020;25.096;2023-08-30T12:19:58;98124.72;;;28.29
76901;BMP280;65859;43.020;25.096;2023-08-30T12:22:39;98140.84;;;27.92
76901;BMP280;65859;43.020;25.096;2023-08-30T12:25:21;98127.78;;;28.16
76901;BMP280;65859;43.020;25.096;2023-08-30T12:27:47;98125.25;;;30.87
76901;BMP280;65859;43.020;25.096;2023-08-30T12:30:15;98118.25;;;30.80
76901;BMP280;65859;43.020;25.096;2023-08-30T12:32:43;98120.44;;;30.48
76901;BMP280;65859;43.020;25.096;2023-08-30T12:35:09;98120.53;;;31.15
76901;BMP280;65859;43.020;25.096;2023-08-30T12:37:36;98117.72;;;32.23
76901;BMP280;65859;43.020;25.096;2023-08-30T12:40:02;98113.06;;;32.01
76901;BMP280;65859;43.020;25.096;2023-08-30T12:42:29;98108.66;;;31.87
76901;BMP280;65859;43.020;25.096;2023-08-30T12:44:55;98118.00;;;31.17
76901;BMP280;65859;43.020;25.096;2023-08-30T12:47:22;98119.28;;;32.13
76901;BMP280;65859;43.020;25.096;2023-08-30T12:49:48;98113.38;;;32.44
76901;BMP280;65859;43.020;25.096;2023-08-30T12:52:14;98106.78;;;30.65
76901;BMP280;65859;43.020;25.096;2023-08-30T12:54:42;98114.06;;;28.51
76901;BMP280;65859;43.020;25.096;2023-08-30T12:57:09;98115.19;;;28.39
76901;BMP280;65859;43.020;25.096;2023-08-30T12:59:35;98116.19;;;28.88
76901;BMP280;65859;43.020;25.096;2023-08-30T13:02:05;98102.75;;;28.18
76901;BMP280;65859;43.020;25.096;2023-08-30T13:04:31;98109.19;;;28.81
76901;BMP280;65859;43.020;25.096;2023-08-30T13:06:57;98102.94;;;32.32
76901;BMP280;65859;43.020;25.096;2023-08-30T13:09:23;98110.41;;;31.90
76901;BMP280;65859;43.020;25.096;2023-08-30T13:11:50;98100.41;;;31.87
76901;BMP280;65859;43.020;25.096;2023-08-30T13:14:16;98103.53;;;30.72
76901;BMP280;65859;43.020;25.096;2023-08-30T13:16:42;98105.53;;;30.88
76901;BMP280;65859;43.020;25.096;2023-08-30T13:19:09;98101.56;;;30.72
76901;BMP280;65859;43.020;25.096;2023-08-30T13:21:35;98087.38;;;31.30
76901;BMP280;65859;43.020;25.096;2023-08-30T13:24:01;98080.34;;;31.40
76901;BMP280;65859;43.020;25.096;2023-08-30T13:26:29;98082.59;;;31.41
76901;BMP280;65859;43.020;25.096;2023-08-30T13:28:56;98086.63;;;30.85
76901;BMP280;65859;43.020;25.096;2023-08-30T13:31:24;98088.06;;;30.47
76901;BMP280;65859;43.020;25.096;2023-08-30T13:33:51;98097.72;;;30.25
76901;BMP280;65859;43.020;25.096;2023-08-30T13:36:17;98114.81;;;30.15
76901;BMP280;65859;43.020;25.096;2023-08-30T13:38:43;98135.00;;;29.69
76901;BMP280;65859;43.020;25.096;2023-08-30T13:41:10;98127.03;;;29.34
76901;BMP280;65859;43.020;25.096;2023-08-30T13:43:36;98116.31;;;29.30
76901;BMP280;65859;43.020;25.096;2023-08-30T13:46:02;98126.97;;;28.97
76901;BMP280;65859;43.020;25.096;2023-08-30T13:48:29;98125.56;;;29.07
76901;BMP280;65859;43.020;25.096;2023-08-30T13:50:55;98101.59;;;29.22
76901;BMP280;65859;43.020;25.096;2023-08-30T13:53:21;98105.91;;;29.34
76901;BMP280;65859;43.020;25.096;2023-08-30T13:55:47;98097.31;;;29.47
76901;BMP280;65859;43.020;25.096;2023-08-30T13:58:17;98097.03;;;29.45
76901;BMP280;65859;43.020;25.096;2023-08-30T14:00:45;98096.19;;;29.65
76901;BMP280;65859;43.020;25.096;2023-08-30T14:03:11;98101.53;;;29.85
76901;BMP280;65859;43.020;25.096;2023-08-30T14:05:38;98100.22;;;29.32
76901;BMP280;65859;43.020;25.096;2023-08-30T14:08:07;98101.47;;;29.43